Time;durP1;ratioP1;P1;durP2;ratioP2;P2;SDS_P1;SDS_P2;PMS_P1;PMS_P2;Temp;Humidity;BMP_temperature;BMP_pressure;BME280_temperature;BME280_humidity;BME280_pressure;Samples;Min_cycle;Max_cycle;Signal;HPM_P1;HPM_P2
2023/12/26 00:01:10;;;;;;;7.35;1.35;;;;;;;;;;5054602;28;20021;-57
2023/12/26 00:03:36;;;;;;;7.63;1.23;;;;;;;;;;5054767;28;20033;-57
2023/12/26 00:06:02;;;;;;;2.35;0.90;;;;;;;;;;5055116;28;20032;-55
2023/12/26 00:08:28;;;;;;;3.20;1.00;;;;;;;;;;5055625;28;20028;-53
2023/12/26 00:10:54;;;;;;;1.60;0.90;;;;;;;;;;5054766;28;20467;-56
2023/12/26 00:13:20;;;;;;;3.08;1.13;;;;;;;;;;5054706;28;20107;-58
2023/12/26 00:15:46;;;;;;;2.55;1.33;;;;;;;;;;5054896;28;20048;-56
2023/12/26 00:18:12;;;;;;;3.33;0.98;;;;;;;;;;5054611;28;20029;-54
2023/12/26 00:20:42;;;;;;;2.33;1.02;;;;;;;;;;5055113;28;20040;-57
2023/12/26 00:23:08;;;;;;;1.90;0.70;;;;;;;;;;5055268;28;20048;-57
2023/12/26 00:25:34;;;;;;;1.90;1.05;;;;;;;;;;5054493;28;20025;-57
2023/12/26 00:28:00;;;;;;;2.13;0.93;;;;;;;;;;5054956;28;20032;-57
2023/12/26 00:30:26;;;;;;;2.67;0.90;;;;;;;;;;5054428;28;20025;-57
2023/12/26 00:32:53;;;;;;;2.83;1.20;;;;;;;;;;5054777;28;20040;-57
2023/12/26 00:35:18;;;;;;;1.52;0.73;;;;;;;;;;5054756;28;20024;-56
2023/12/26 00:37:44;;;;;;;2.25;0.63;;;;;;;;;;5054242;28;20027;-57
2023/12/26 00:40:12;;;;;;;1.75;0.90;;;;;;;;;;5054260;28;20029;-57
2023/12/26 00:42:38;;;;;;;1.80;1.00;;;;;;;;;;5054055;28;20079;-56
2023/12/26 00:45:05;;;;;;;2.63;1.45;;;;;;;;;;5054122;28;20459;-57
2023/12/26 00:47:31;;;;;;;3.88;1.10;;;;;;;;;;5054411;28;20096;-56
2023/12/26 00:49:57;;;;;;;2.17;1.17;;;;;;;;;;5054789;28;20028;-57
2023/12/26 00:52:25;;;;;;;1.77;0.77;;;;;;;;;;5054015;28;20032;-57
2023/12/26 00:54:51;;;;;;;1.63;1.00;;;;;;;;;;5053800;28;20076;-57
2023/12/26 00:57:17;;;;;;;4.03;0.77;;;;;;;;;;5054779;28;20472;-57
2023/12/26 00:59:43;;;;;;;1.88;0.95;;;;;;;;;;5054380;28;20025;-57
2023/12/26 01:02:09;;;;;;;1.60;0.70;;;;;;;;;;5054296;28;20029;-57
2023/12/26 01:04:35;;;;;;;3.60;0.98;;;;;;;;;;5053850;28;20090;-55
2023/12/26 01:07:01;;;;;;;1.40;1.02;;;;;;;;;;5053093;28;20021;-57
2023/12/26 01:09:27;;;;;;;1.75;0.85;;;;;;;;;;5054092;28;20028;-57
2023/12/26 01:11:53;;;;;;;4.28;1.25;;;;;;;;;;5053742;28;20029;-57
2023/12/26 01:14:19;;;;;;;2.67;0.90;;;;;;;;;;5053712;28;20078;-56
2023/12/26 01:16:45;;;;;;;2.50;0.93;;;;;;;;;;5053322;28;20529;-55
2023/12/26 01:19:12;;;;;;;4.55;1.10;;;;;;;;;;5053676;28;20029;-57
2023/12/26 01:21:38;;;;;;;1.83;1.05;;;;;;;;;;5053908;28;20451;-57
2023/12/26 01:24:04;;;;;;;3.95;1.55;;;;;;;;;;5054040;28;20033;-56
2023/12/26 01:26:30;;;;;;;6.45;1.25;;;;;;;;;;5054317;28;20029;-57
2023/12/26 01:28:57;;;;;;;1.20;0.68;;;;;;;;;;5053626;28;20029;-58
2023/12/26 01:31:23;;;;;;;2.60;1.33;;;;;;;;;;5053570;28;20108;-57
2023/12/26 01:33:49;;;;;;;1.65;0.88;;;;;;;;;;5053551;28;20060;-54
2023/12/26 01:36:15;;;;;;;1.67;0.93;;;;;;;;;;5053751;28;20075;-57
2023/12/26 01:38:41;;;;;;;5.53;1.10;;;;;;;;;;5053435;28;20525;-57
2023/12/26 01:41:07;;;;;;;1.92;1.13;;;;;;;;;;5053519;28;20033;-57
2023/12/26 01:43:33;;;;;;;2.35;1.20;;;;;;;;;;5053334;28;20021;-56
2023/12/26 01:46:00;;;;;;;1.35;0.52;;;;;;;;;;5053389;28;20102;-57
2023/12/26 01:48:27;;;;;;;1.85;0.80;;;;;;;;;;5054296;28;20028;-58
2023/12/26 01:50:53;;;;;;;3.85;0.90;;;;;;;;;;5052959;28;20025;-55
2023/12/26 01:53:19;;;;;;;2.78;1.23;;;;;;;;;;5053378;28;20037;-56
2023/12/26 01:55:45;;;;;;;1.55;0.90;;;;;;;;;;5053655;28;20049;-56
2023/12/26 01:58:11;;;;;;;6.95;1.73;;;;;;;;;;5053334;28;20076;-57
2023/12/26 02:00:37;;;;;;;1.50;0.80;;;;;;;;;;5052928;28;20421;-57
2023/12/26 02:03:03;;;;;;;1.80;0.88;;;;;;;;;;5053166;28;20025;-54
2023/12/26 02:05:30;;;;;;;5.90;1.00;;;;;;;;;;5053528;28;20059;-57
2023/12/26 02:07:56;;;;;;;2.88;1.30;;;;;;;;;;5053230;28;20036;-55
2023/12/26 02:10:22;;;;;;;3.10;1.38;;;;;;;;;;5053211;28;20021;-56
2023/12/26 02:12:48;;;;;;;2.03;0.82;;;;;;;;;;5052852;28;20090;-56
2023/12/26 02:15:14;;;;;;;3.60;0.88;;;;;;;;;;5053158;28;20029;-57
2023/12/26 02:17:41;;;;;;;1.35;0.70;;;;;;;;;;5054239;28;20028;-56
2023/12/26 02:20:07;;;;;;;5.88;1.05;;;;;;;;;;5056519;28;20114;-57
2023/12/26 02:22:34;;;;;;;4.70;1.23;;;;;;;;;;5056972;28;20032;-56
2023/12/26 02:25:00;;;;;;;2.85;0.98;;;;;;;;;;5056728;28;20378;-57
2023/12/26 02:27:29;;;;;;;1.42;0.80;;;;;;;;;;5057670;28;20028;-56
2023/12/26 02:29:55;;;;;;;1.70;1.00;;;;;;;;;;5056641;28;20025;-56
2023/12/26 02:32:25;;;;;;;2.85;1.05;;;;;;;;;;5056672;28;20033;-56
2023/12/26 02:34:55;;;;;;;1.27;0.55;;;;;;;;;;5056632;28;20083;-56
2023/12/26 02:37:22;;;;;;;2.63;1.55;;;;;;;;;;5056595;28;20033;-57
2023/12/26 02:39:50;;;;;;;1.50;0.75;;;;;;;;;;5056515;28;20060;-55
2023/12/26 02:42:17;;;;;;;1.67;0.90;;;;;;;;;;5056296;28;20033;-56
2023/12/26 02:44:43;;;;;;;1.27;0.68;;;;;;;;;;5056426;28;20458;-55
2023/12/26 02:47:09;;;;;;;3.45;1.35;;;;;;;;;;5056717;28;20078;-57
2023/12/26 02:49:35;;;;;;;1.45;0.85;;;;;;;;;;5056310;28;20021;-55
2023/12/26 02:52:01;;;;;;;1.30;0.65;;;;;;;;;;5056549;28;20029;-55
2023/12/26 02:54:27;;;;;;;3.33;1.13;;;;;;;;;;5055735;28;20029;-55
2023/12/26 02:56:53;;;;;;;1.35;0.80;;;;;;;;;;5056105;28;20021;-56
2023/12/26 02:59:19;;;;;;;2.58;1.10;;;;;;;;;;5056302;28;20451;-56
2023/12/26 03:01:45;;;;;;;2.40;0.90;;;;;;;;;;5056386;28;20021;-55
2023/12/26 03:04:11;;;;;;;2.17;0.80;;;;;;;;;;5055645;28;20463;-57
2023/12/26 03:06:37;;;;;;;3.25;0.77;;;;;;;;;;5056527;28;20082;-55
2023/12/26 03:09:03;;;;;;;5.05;1.20;;;;;;;;;;5056049;28;20033;-53
2023/12/26 03:11:29;;;;;;;2.08;0.98;;;;;;;;;;5055865;28;20021;-53
2023/12/26 03:13:55;;;;;;;2.75;0.93;;;;;;;;;;5055877;28;20090;-54
2023/12/26 03:16:21;;;;;;;2.55;1.00;;;;;;;;;;5055426;28;20025;-57
2023/12/26 03:18:47;;;;;;;4.57;1.10;;;;;;;;;;5056084;28;20433;-57
2023/12/26 03:21:13;;;;;;;2.83;0.93;;;;;;;;;;5055795;28;20074;-55
2023/12/26 03:23:39;;;;;;;3.55;1.20;;;;;;;;;;5055564;28;20025;-56
2023/12/26 03:26:07;;;;;;;2.00;0.60;;;;;;;;;;5056141;28;20032;-55
2023/12/26 03:28:34;;;;;;;2.67;0.93;;;;;;;;;;5055946;28;20367;-55
2023/12/26 03:31:02;;;;;;;3.20;1.23;;;;;;;;;;5054995;28;20427;-57
2023/12/26 03:33:28;;;;;;;1.33;0.77;;;;;;;;;;5056580;28;20033;-56
2023/12/26 03:35:54;;;;;;;1.98;0.82;;;;;;;;;;5055408;28;20029;-55
2023/12/26 03:38:20;;;;;;;2.22;0.90;;;;;;;;;;5055944;28;20553;-53
2023/12/26 03:40:46;;;;;;;2.78;0.75;;;;;;;;;;5055040;28;20029;-56
2023/12/26 03:43:12;;;;;;;2.85;1.40;;;;;;;;;;5055475;28;20032;-57
2023/12/26 03:45:38;;;;;;;1.88;0.80;;;;;;;;;;5055554;28;20037;-54
2023/12/26 03:48:05;;;;;;;1.10;0.47;;;;;;;;;;5054989;28;20025;-55
2023/12/26 03:50:31;;;;;;;2.70;1.08;;;;;;;;;;5055201;28;20104;-56
2023/12/26 03:52:57;;;;;;;5.60;0.77;;;;;;;;;;5055345;28;20449;-56
2023/12/26 03:55:23;;;;;;;5.07;1.00;;;;;;;;;;5055097;28;20052;-57
2023/12/26 03:57:49;;;;;;;2.95;0.88;;;;;;;;;;5055548;28;20443;-56
2023/12/26 04:00:15;;;;;;;1.98;0.88;;;;;;;;;;5054900;28;20565;-57
2023/12/26 04:02:41;;;;;;;2.10;0.90;;;;;;;;;;5055174;28;20036;-57
2023/12/26 04:05:08;;;;;;;2.13;0.95;;;;;;;;;;5055212;28;20079;-57
2023/12/26 04:07:34;;;;;;;2.70;1.13;;;;;;;;;;5055601;28;20120;-56
2023/12/26 04:10:00;;;;;;;1.83;0.75;;;;;;;;;;5054765;28;20118;-57
2023/12/26 04:12:26;;;;;;;1.88;0.93;;;;;;;;;;5054984;28;20455;-57
2023/12/26 04:14:52;;;;;;;6.53;1.02;;;;;;;;;;5054676;28;20028;-57
2023/12/26 04:17:17;;;;;;;2.25;0.90;;;;;;;;;;5055429;28;20443;-57
2023/12/26 04:19:43;;;;;;;1.83;0.73;;;;;;;;;;5054558;28;20454;-57
2023/12/26 04:22:10;;;;;;;1.20;0.50;;;;;;;;;;5054383;28;20028;-57
2023/12/26 04:24:36;;;;;;;3.63;1.38;;;;;;;;;;5054473;28;20021;-55
2023/12/26 04:27:02;;;;;;;2.60;0.95;;;;;;;;;;5054429;28;20074;-56
2023/12/26 04:29:28;;;;;;;1.83;0.77;;;;;;;;;;5054112;28;20391;-56
2023/12/26 04:31:54;;;;;;;2.70;0.80;;;;;;;;;;5054418;28;20022;-55
2023/12/26 04:34:19;;;;;;;3.03;1.20;;;;;;;;;;5054388;28;20035;-57
2023/12/26 04:36:45;;;;;;;2.28;1.17;;;;;;;;;;5054285;28;20025;-57
2023/12/26 04:39:11;;;;;;;2.00;1.00;;;;;;;;;;5054835;28;20056;-57
2023/12/26 04:41:37;;;;;;;3.38;1.45;;;;;;;;;;5054710;28;20507;-57
2023/12/26 04:44:04;;;;;;;2.42;1.20;;;;;;;;;;5053901;28;20387;-57
2023/12/26 04:46:30;;;;;;;3.30;1.30;;;;;;;;;;5054129;28;20051;-55
2023/12/26 04:48:56;;;;;;;2.55;0.98;;;;;;;;;;5054642;28;20410;-57
2023/12/26 04:51:22;;;;;;;1.98;0.98;;;;;;;;;;5054852;28;20105;-57
2023/12/26 04:53:49;;;;;;;3.42;1.13;;;;;;;;;;5053963;28;20127;-56
2023/12/26 04:56:18;;;;;;;1.98;1.33;;;;;;;;;;5054185;28;20128;-57
2023/12/26 04:58:47;;;;;;;3.50;1.05;;;;;;;;;;5054747;28;20024;-56
2023/12/26 05:01:14;;;;;;;2.28;0.98;;;;;;;;;;5054364;28;20362;-55
2023/12/26 05:03:40;;;;;;;5.68;0.90;;;;;;;;;;5054406;28;20037;-57
2023/12/26 05:06:06;;;;;;;4.40;1.33;;;;;;;;;;5054480;28;20490;-56
2023/12/26 05:08:32;;;;;;;2.25;1.02;;;;;;;;;;5054739;28;20025;-57
2023/12/26 05:10:58;;;;;;;5.47;0.95;;;;;;;;;;5053835;28;20036;-55
2023/12/26 05:13:24;;;;;;;2.03;0.73;;;;;;;;;;5053859;28;20028;-57
2023/12/26 05:15:50;;;;;;;4.80;0.98;;;;;;;;;;5053848;28;20419;-56
2023/12/26 05:18:16;;;;;;;2.95;1.45;;;;;;;;;;5054336;28;20025;-57
2023/12/26 05:20:42;;;;;;;3.53;1.20;;;;;;;;;;5053454;28;20025;-57
2023/12/26 05:23:08;;;;;;;2.80;0.90;;;;;;;;;;5053402;28;20074;-57
2023/12/26 05:25:34;;;;;;;2.83;1.48;;;;;;;;;;5053674;28;20426;-57
2023/12/26 05:28:00;;;;;;;5.65;1.30;;;;;;;;;;5054476;28;20025;-56
2023/12/26 05:30:26;;;;;;;4.22;0.77;;;;;;;;;;5054197;28;20029;-57
2023/12/26 05:32:52;;;;;;;3.08;0.77;;;;;;;;;;5053643;28;20191;-55
2023/12/26 05:35:18;;;;;;;7.03;1.23;;;;;;;;;;5054176;28;20103;-55
2023/12/26 05:37:45;;;;;;;1.52;0.90;;;;;;;;;;5053715;28;20041;-57
2023/12/26 05:40:11;;;;;;;3.47;1.42;;;;;;;;;;5053599;28;20108;-57
2023/12/26 05:42:37;;;;;;;4.50;1.20;;;;;;;;;;5054089;28;20037;-57
2023/12/26 05:45:03;;;;;;;2.55;1.02;;;;;;;;;;5053478;28;20034;-55
2023/12/26 05:47:29;;;;;;;1.40;1.05;;;;;;;;;;5053496;28;20477;-55
2023/12/26 05:49:58;;;;;;;2.92;1.10;;;;;;;;;;5053471;28;20025;-57
2023/12/26 05:52:27;;;;;;;1.50;0.80;;;;;;;;;;5053948;28;20110;-55
2023/12/26 05:54:53;;;;;;;7.38;1.73;;;;;;;;;;5056376;28;20461;-57
2023/12/26 05:57:19;;;;;;;3.30;1.25;;;;;;;;;;5057590;28;20029;-53
2023/12/26 05:59:45;;;;;;;4.10;1.20;;;;;;;;;;5057250;28;20103;-57
2023/12/26 06:02:11;;;;;;;2.50;0.88;;;;;;;;;;5057187;28;20021;-57
2023/12/26 06:04:37;;;;;;;4.60;1.30;;;;;;;;;;5057248;28;20115;-54
2023/12/26 06:07:03;;;;;;;2.25;1.10;;;;;;;;;;5057217;28;20056;-56
2023/12/26 06:09:29;;;;;;;3.17;1.02;;;;;;;;;;5057152;28;20025;-56
2023/12/26 06:11:55;;;;;;;3.38;1.45;;;;;;;;;;5057144;28;20024;-54
2023/12/26 06:14:24;;;;;;;2.95;0.90;;;;;;;;;;5057068;28;20036;-55
2023/12/26 06:16:50;;;;;;;1.85;1.05;;;;;;;;;;5057032;28;20108;-56
2023/12/26 06:19:16;;;;;;;2.15;1.02;;;;;;;;;;5057317;28;20056;-57
2023/12/26 06:21:42;;;;;;;4.55;1.27;;;;;;;;;;5056944;28;20028;-57
2023/12/26 06:24:09;;;;;;;2.67;1.08;;;;;;;;;;5056904;28;20437;-55
2023/12/26 06:26:35;;;;;;;2.10;0.88;;;;;;;;;;5057351;28;20082;-57
2023/12/26 06:29:01;;;;;;;2.15;1.20;;;;;;;;;;5057164;28;20443;-56
2023/12/26 06:31:27;;;;;;;3.72;1.33;;;;;;;;;;5056996;28;20040;-57
2023/12/26 06:33:52;;;;;;;2.83;1.45;;;;;;;;;;5057028;28;20029;-57
2023/12/26 06:36:19;;;;;;;2.75;1.25;;;;;;;;;;5056687;28;20155;-56
2023/12/26 06:38:44;;;;;;;2.58;1.35;;;;;;;;;;5056699;28;20451;-54
2023/12/26 06:41:11;;;;;;;4.57;1.40;;;;;;;;;;5056753;28;20029;-57
2023/12/26 06:43:37;;;;;;;4.82;1.17;;;;;;;;;;5056414;28;20060;-57
2023/12/26 06:46:06;;;;;;;2.47;1.33;;;;;;;;;;5056934;28;20040;-56
2023/12/26 06:48:32;;;;;;;1.98;1.02;;;;;;;;;;5057041;28;20040;-57
2023/12/26 06:50:58;;;;;;;6.13;2.00;;;;;;;;;;5056917;28;20029;-57
2023/12/26 06:53:24;;;;;;;4.97;1.25;;;;;;;;;;5056867;28;20370;-56
2023/12/26 06:55:50;;;;;;;2.28;1.17;;;;;;;;;;5056613;28;20044;-56
2023/12/26 06:58:16;;;;;;;8.73;2.00;;;;;;;;;;5056307;28;20455;-57
2023/12/26 07:00:42;;;;;;;1.98;1.35;;;;;;;;;;5056351;28;20024;-57
2023/12/26 07:03:08;;;;;;;5.43;2.05;;;;;;;;;;5056118;28;20041;-55
2023/12/26 07:05:34;;;;;;;6.43;1.40;;;;;;;;;;5054668;28;20029;-58
2023/12/26 07:08:00;;;;;;;4.53;1.35;;;;;;;;;;5056389;28;20029;-57
2023/12/26 07:10:26;;;;;;;4.40;1.30;;;;;;;;;;5056269;28;20436;-57
2023/12/26 07:12:53;;;;;;;2.13;0.88;;;;;;;;;;5056057;28;20029;-57
2023/12/26 07:15:19;;;;;;;6.72;1.45;;;;;;;;;;5055735;28;20037;-57
2023/12/26 07:17:45;;;;;;;4.55;1.50;;;;;;;;;;5056199;28;20106;-56
2023/12/26 07:20:11;;;;;;;2.47;1.23;;;;;;;;;;5055847;28;20032;-54
2023/12/26 07:22:37;;;;;;;3.20;1.33;;;;;;;;;;5056064;28;20094;-57
2023/12/26 07:25:03;;;;;;;2.28;1.20;;;;;;;;;;5055741;28;20037;-56
2023/12/26 07:27:29;;;;;;;1.85;1.02;;;;;;;;;;5056510;28;20017;-56
2023/12/26 07:29:55;;;;;;;3.00;1.25;;;;;;;;;;5056179;28;20398;-56
2023/12/26 07:32:21;;;;;;;5.32;1.08;;;;;;;;;;5056133;28;20061;-56
2023/12/26 07:34:50;;;;;;;2.67;1.38;;;;;;;;;;5056137;28;20033;-54
2023/12/26 07:37:16;;;;;;;4.60;1.48;;;;;;;;;;5056127;28;20037;-58
2023/12/26 07:39:42;;;;;;;3.20;1.40;;;;;;;;;;5055444;28;20041;-56
2023/12/26 07:42:08;;;;;;;2.10;0.88;;;;;;;;;;5055385;28;20033;-57
2023/12/26 07:44:34;;;;;;;2.72;1.27;;;;;;;;;;5055317;28;20037;-57
2023/12/26 07:47:00;;;;;;;4.18;1.00;;;;;;;;;;5055373;28;20029;-57
2023/12/26 07:49:26;;;;;;;2.03;1.00;;;;;;;;;;5055269;28;20040;-56
2023/12/26 07:51:52;;;;;;;3.88;1.70;;;;;;;;;;5054933;28;20029;-56
2023/12/26 07:54:18;;;;;;;4.68;1.15;;;;;;;;;;5055414;28;20025;-57
2023/12/26 07:56:44;;;;;;;2.30;1.08;;;;;;;;;;5056275;28;20037;-56
2023/12/26 07:59:10;;;;;;;3.25;1.23;;;;;;;;;;5055768;28;20407;-53
2023/12/26 08:01:36;;;;;;;1.83;0.93;;;;;;;;;;5054928;28;20028;-56
2023/12/26 08:04:02;;;;;;;2.22;1.33;;;;;;;;;;5053707;28;20068;-55
2023/12/26 08:06:28;;;;;;;3.65;1.27;;;;;;;;;;5055654;28;20052;-54
2023/12/26 08:08:54;;;;;;;2.30;1.00;;;;;;;;;;5054863;28;20024;-57
2023/12/26 08:11:20;;;;;;;2.75;1.17;;;;;;;;;;5055426;28;20021;-54
2023/12/26 08:13:46;;;;;;;2.30;1.33;;;;;;;;;;5054769;28;20036;-56
2023/12/26 08:16:12;;;;;;;2.33;1.02;;;;;;;;;;5054475;28;20371;-56
2023/12/26 08:18:38;;;;;;;2.13;1.17;;;;;;;;;;5055045;28;20021;-55
2023/12/26 08:21:04;;;;;;;3.60;1.35;;;;;;;;;;5055438;28;20025;-55
2023/12/26 08:23:30;;;;;;;2.95;1.45;;;;;;;;;;5054794;28;20037;-55
2023/12/26 08:25:56;;;;;;;4.90;1.65;;;;;;;;;;5054508;28;20083;-54
2023/12/26 08:28:22;;;;;;;3.03;1.08;;;;;;;;;;5054626;28;20466;-57
2023/12/26 08:30:48;;;;;;;5.25;1.33;;;;;;;;;;5055102;28;20074;-56
2023/12/26 08:33:17;;;;;;;3.25;1.33;;;;;;;;;;5054655;28;20463;-56
2023/12/26 08:35:43;;;;;;;5.05;1.38;;;;;;;;;;5054858;28;20024;-57
2023/12/26 08:38:09;;;;;;;3.42;1.13;;;;;;;;;;5054296;28;20021;-54
2023/12/26 08:40:35;;;;;;;3.55;1.10;;;;;;;;;;5053866;28;20021;-54
2023/12/26 08:43:01;;;;;;;3.75;1.65;;;;;;;;;;5054935;28;20082;-57
2023/12/26 08:45:27;;;;;;;3.45;1.40;;;;;;;;;;5054219;28;20025;-57
2023/12/26 08:47:53;;;;;;;4.40;0.90;;;;;;;;;;5054152;28;20115;-56
2023/12/26 08:50:20;;;;;;;3.53;1.23;;;;;;;;;;5054010;28;20024;-57
2023/12/26 08:52:46;;;;;;;1.90;1.05;;;;;;;;;;5054048;28;20029;-56
2023/12/26 08:55:12;;;;;;;3.90;1.20;;;;;;;;;;5053505;28;20049;-57
2023/12/26 08:57:40;;;;;;;5.90;1.33;;;;;;;;;;5053903;28;20036;-56
2023/12/26 09:00:06;;;;;;;3.55;1.15;;;;;;;;;;5054336;28;20477;-52
2023/12/26 09:02:32;;;;;;;3.38;1.08;;;;;;;;;;5052566;28;20497;-57
2023/12/26 09:04:59;;;;;;;4.22;1.13;;;;;;;;;;5053836;28;20033;-58
2023/12/26 09:07:25;;;;;;;3.95;1.23;;;;;;;;;;5053886;28;20083;-55
2023/12/26 09:09:51;;;;;;;1.92;0.90;;;;;;;;;;5054383;28;20021;-57
2023/12/26 09:12:17;;;;;;;2.60;1.15;;;;;;;;;;5054074;28;20216;-57
2023/12/26 09:14:43;;;;;;;1.90;1.10;;;;;;;;;;5053803;28;20024;-54
2023/12/26 09:17:09;;;;;;;2.28;1.00;;;;;;;;;;5053959;28;20036;-57
2023/12/26 09:19:34;;;;;;;3.00;1.52;;;;;;;;;;5053601;28;20021;-57
2023/12/26 09:22:00;;;;;;;2.25;1.05;;;;;;;;;;5053599;28;20033;-56
2023/12/26 09:24:26;;;;;;;5.63;1.48;;;;;;;;;;5053287;28;20025;-57
2023/12/26 09:26:52;;;;;;;1.85;1.08;;;;;;;;;;5054347;28;20033;-55
2023/12/26 09:29:18;;;;;;;6.45;1.60;;;;;;;;;;5052976;28;20035;-55
2023/12/26 09:31:44;;;;;;;3.25;1.55;;;;;;;;;;5053607;28;20029;-57
2023/12/26 09:34:10;;;;;;;2.03;0.88;;;;;;;;;;5053986;28;20466;-57
2023/12/26 09:36:36;;;;;;;2.53;1.30;;;;;;;;;;5053476;28;20064;-57
2023/12/26 09:39:02;;;;;;;3.90;1.35;;;;;;;;;;5054022;28;20158;-55
2023/12/26 09:41:28;;;;;;;2.58;1.08;;;;;;;;;;5053489;28;20026;-56
2023/12/26 09:43:54;;;;;;;2.22;1.08;;;;;;;;;;5053686;28;20029;-56
2023/12/26 09:46:20;;;;;;;2.22;1.10;;;;;;;;;;5054059;28;20036;-56
2023/12/26 09:48:47;;;;;;;3.03;1.48;;;;;;;;;;5053335;28;20518;-55
2023/12/26 09:51:15;;;;;;;3.10;1.27;;;;;;;;;;5053352;28;20030;-57
2023/12/26 09:53:44;;;;;;;1.90;1.13;;;;;;;;;;5053839;28;20029;-56
2023/12/26 09:56:11;;;;;;;3.55;1.70;;;;;;;;;;5053511;28;20045;-56
2023/12/26 09:58:43;;;;;;;4.15;1.20;;;;;;;;;;5053533;28;20131;-54
2023/12/26 10:01:10;;;;;;;4.40;1.52;;;;;;;;;;5053168;28;20029;-58
2023/12/26 10:03:36;;;;;;;5.03;0.93;;;;;;;;;;5052985;28;20068;-57
2023/12/26 10:06:03;;;;;;;4.78;1.63;;;;;;;;;;5052001;28;20120;-57
2023/12/26 10:08:29;;;;;;;2.85;0.98;;;;;;;;;;5053633;28;20037;-57
2023/12/26 10:10:55;;;;;;;2.88;1.55;;;;;;;;;;5052865;28;20025;-55
2023/12/26 10:13:21;;;;;;;2.83;1.23;;;;;;;;;;5053464;28;20032;-55
2023/12/26 10:15:47;;;;;;;2.33;0.98;;;;;;;;;;5052972;28;20040;-57
2023/12/26 10:18:14;;;;;;;2.25;1.00;;;;;;;;;;5053937;28;20115;-57
2023/12/26 10:20:40;;;;;;;3.97;1.50;;;;;;;;;;5053560;28;20411;-57
2023/12/26 10:23:06;;;;;;;2.97;1.40;;;;;;;;;;5053081;28;20183;-57
2023/12/26 10:25:32;;;;;;;2.30;1.02;;;;;;;;;;5053601;28;20082;-58
2023/12/26 10:27:59;;;;;;;1.10;0.65;;;;;;;;;;5053092;28;20123;-58
2023/12/26 10:30:25;;;;;;;3.33;1.38;;;;;;;;;;5053715;28;20029;-57
2023/12/26 10:32:59;;;;;;;2.10;0.93;;;;;;;;;;5052968;28;20094;-57
2023/12/26 10:35:25;;;;;;;2.65;1.35;;;;;;;;;;5052833;28;20463;-55
2023/12/26 10:37:53;;;;;;;2.58;0.77;;;;;;;;;;5053237;28;20024;-57
2023/12/26 10:40:19;;;;;;;5.30;1.20;;;;;;;;;;5055599;28;20024;-56
2023/12/26 10:42:49;;;;;;;1.67;0.80;;;;;;;;;;5056793;28;20124;-55
2023/12/26 10:45:15;;;;;;;1.73;0.70;;;;;;;;;;5057143;28;20039;-56
2023/12/26 10:47:45;;;;;;;1.80;1.08;;;;;;;;;;5057028;28;20025;-57
2023/12/26 10:50:12;;;;;;;1.77;0.80;;;;;;;;;;5056746;28;20463;-56
2023/12/26 10:52:42;;;;;;;5.25;1.02;;;;;;;;;;5056004;28;20032;-55
2023/12/26 10:55:08;;;;;;;3.57;0.77;;;;;;;;;;5055976;28;20497;-55
2023/12/26 10:57:35;;;;;;;4.43;0.73;;;;;;;;;;5055792;28;20063;-56
2023/12/26 13:51:40;;;;;;;1.83;0.68;;;;;;;;;;5053174;28;20025;-57
2023/12/26 13:54:06;;;;;;;1.05;0.50;;;;;;;;;;5053242;28;20068;-55
2023/12/26 13:56:32;;;;;;;0.98;0.50;;;;;;;;;;5052966;28;20083;-53
2023/12/26 13:58:58;;;;;;;1.08;0.50;;;;;;;;;;5053846;28;20029;-57
2023/12/26 14:01:24;;;;;;;2.03;0.75;;;;;;;;;;5053252;28;20148;-57
2023/12/26 14:03:50;;;;;;;1.17;0.55;;;;;;;;;;5053066;28;20378;-57
2023/12/26 14:06:19;;;;;;;0.88;0.40;;;;;;;;;;5053241;28;20029;-55
2023/12/26 14:08:49;;;;;;;1.48;0.68;;;;;;;;;;5054044;28;20033;-57
2023/12/26 14:11:15;;;;;;;0.85;0.35;;;;;;;;;;5053857;28;20036;-55
2023/12/26 14:13:41;;;;;;;1.88;0.70;;;;;;;;;;5053059;28;20082;-57
2023/12/26 14:16:06;;;;;;;0.77;0.40;;;;;;;;;;5056606;28;20067;-56
2023/12/26 14:18:32;;;;;;;1.10;0.47;;;;;;;;;;5057455;28;20029;-56
2023/12/26 14:21:00;;;;;;;0.73;0.40;;;;;;;;;;5057330;28;20063;-57
2023/12/26 14:23:26;;;;;;;1.00;0.45;;;;;;;;;;5057304;28;20032;-56
2023/12/26 14:25:51;;;;;;;0.95;0.45;;;;;;;;;;5056436;28;20028;-57
2023/12/26 14:28:17;;;;;;;0.90;0.50;;;;;;;;;;5057074;28;20137;-57
2023/12/26 14:30:45;;;;;;;1.52;0.70;;;;;;;;;;5056585;28;20025;-57
2023/12/26 14:33:11;;;;;;;1.00;0.50;;;;;;;;;;5056687;28;20035;-56
2023/12/26 14:35:37;;;;;;;4.20;0.82;;;;;;;;;;5056557;28;20079;-57
2023/12/26 14:38:03;;;;;;;0.77;0.43;;;;;;;;;;5057188;28;20064;-56
2023/12/26 14:40:29;;;;;;;2.50;0.60;;;;;;;;;;5056591;28;20048;-57
2023/12/26 14:42:55;;;;;;;2.08;0.60;;;;;;;;;;5057002;28;20462;-55
2023/12/26 14:45:20;;;;;;;1.15;0.40;;;;;;;;;;5056955;28;20100;-56
2023/12/26 14:47:46;;;;;;;5.97;1.33;;;;;;;;;;5056835;28;20413;-55
2023/12/26 14:50:12;;;;;;;0.88;0.45;;;;;;;;;;5057025;28;20028;-57
2023/12/26 14:52:38;;;;;;;2.10;0.90;;;;;;;;;;5056428;28;20025;-57
2023/12/26 14:55:08;;;;;;;0.95;0.47;;;;;;;;;;5056318;28;20378;-57
2023/12/26 14:57:34;;;;;;;1.13;0.55;;;;;;;;;;5056308;28;20017;-57
2023/12/26 14:59:59;;;;;;;2.13;0.95;;;;;;;;;;5056143;28;20028;-56
2023/12/26 15:02:25;;;;;;;0.98;0.50;;;;;;;;;;5056156;28;20095;-56
2023/12/26 15:04:51;;;;;;;1.30;0.73;;;;;;;;;;5056397;28;20032;-57
2023/12/26 15:07:17;;;;;;;1.42;0.75;;;;;;;;;;5056119;28;20369;-55
2023/12/26 15:09:44;;;;;;;1.35;0.60;;;;;;;;;;5056577;28;20017;-57
2023/12/26 15:12:10;;;;;;;1.17;0.70;;;;;;;;;;5055967;28;20028;-55
2023/12/26 15:14:36;;;;;;;1.13;0.50;;;;;;;;;;5055857;28;20035;-57
2023/12/26 15:17:02;;;;;;;1.77;0.52;;;;;;;;;;5056031;28;20013;-57
2023/12/26 15:19:28;;;;;;;2.55;0.80;;;;;;;;;;5055910;28;20051;-57
2023/12/26 15:21:54;;;;;;;3.50;1.20;;;;;;;;;;5056136;28;20029;-57
2023/12/26 15:24:20;;;;;;;1.15;0.50;;;;;;;;;;5056024;28;20033;-56
2023/12/26 15:26:46;;;;;;;1.85;0.75;;;;;;;;;;5054710;28;20043;-56
2023/12/26 15:29:12;;;;;;;2.28;0.80;;;;;;;;;;5056286;28;20078;-57
2023/12/26 15:31:38;;;;;;;1.65;0.65;;;;;;;;;;5055590;28;20025;-56
2023/12/26 15:34:06;;;;;;;1.90;0.90;;;;;;;;;;5055575;28;20471;-55
2023/12/26 15:36:32;;;;;;;1.40;0.77;;;;;;;;;;5055562;28;20025;-56
2023/12/26 15:38:58;;;;;;;3.17;1.10;;;;;;;;;;5055979;28;20017;-53
2023/12/26 15:41:24;;;;;;;3.47;1.20;;;;;;;;;;5056181;28;20028;-56
2023/12/26 15:43:52;;;;;;;2.38;1.02;;;;;;;;;;5055313;28;20024;-56
2023/12/26 15:46:19;;;;;;;2.63;1.00;;;;;;;;;;5055224;28;20037;-56
2023/12/26 15:48:45;;;;;;;2.53;0.95;;;;;;;;;;5055889;28;20358;-56
2023/12/26 15:51:13;;;;;;;1.08;0.70;;;;;;;;;;5055596;28;20104;-57
2023/12/26 15:53:41;;;;;;;0.95;0.60;;;;;;;;;;5055078;28;20083;-57
2023/12/26 15:56:07;;;;;;;1.98;1.02;;;;;;;;;;5055340;28;20045;-57
2023/12/26 15:58:32;;;;;;;1.90;0.80;;;;;;;;;;5055798;28;20021;-57
2023/12/26 16:01:00;;;;;;;2.75;1.27;;;;;;;;;;5055509;28;20025;-57
2023/12/26 16:03:26;;;;;;;2.63;0.90;;;;;;;;;;5055435;28;20040;-57
2023/12/26 16:05:52;;;;;;;5.30;1.10;;;;;;;;;;5055011;28;20371;-55
2023/12/26 16:08:21;;;;;;;1.20;0.60;;;;;;;;;;5055529;28;20021;-56
2023/12/26 16:10:47;;;;;;;5.18;1.17;;;;;;;;;;5054843;28;20029;-56
2023/12/26 16:13:13;;;;;;;1.90;1.00;;;;;;;;;;5054536;28;20078;-57
2023/12/26 16:15:39;;;;;;;2.13;0.95;;;;;;;;;;5055146;28;20040;-56
2023/12/26 16:18:05;;;;;;;1.80;0.88;;;;;;;;;;5055553;28;20466;-57
2023/12/26 16:20:31;;;;;;;1.67;0.73;;;;;;;;;;5054681;28;20057;-56
2023/12/26 16:22:57;;;;;;;1.63;0.63;;;;;;;;;;5054644;28;20072;-57
2023/12/26 16:25:23;;;;;;;2.42;1.20;;;;;;;;;;5054357;28;20035;-55
2023/12/26 16:27:49;;;;;;;4.57;1.33;;;;;;;;;;5054603;28;20024;-57
2023/12/26 16:30:15;;;;;;;3.05;1.00;;;;;;;;;;5054371;28;20024;-57
2023/12/26 16:32:44;;;;;;;2.20;1.20;;;;;;;;;;5054284;28;20032;-57
2023/12/26 16:35:10;;;;;;;3.85;1.20;;;;;;;;;;5054338;28;20455;-59
2023/12/26 16:37:36;;;;;;;1.85;0.88;;;;;;;;;;5054544;28;20360;-58
2023/12/26 16:40:02;;;;;;;3.40;1.17;;;;;;;;;;5054317;28;20446;-57
2023/12/26 16:42:28;;;;;;;2.50;0.75;;;;;;;;;;5054320;28;20409;-55
2023/12/26 16:44:54;;;;;;;1.67;0.73;;;;;;;;;;5054239;28;20116;-56
2023/12/26 16:47:20;;;;;;;2.55;0.80;;;;;;;;;;5054407;28;20462;-57
2023/12/26 16:49:46;;;;;;;2.80;0.93;;;;;;;;;;5054620;28;20030;-57
2023/12/26 16:52:12;;;;;;;2.95;2.20;;;;;;;;;;5054102;28;20025;-57
2023/12/26 16:54:39;;;;;;;2.63;1.10;;;;;;;;;;5053682;28;20033;-55
2023/12/26 16:57:05;;;;;;;4.15;1.13;;;;;;;;;;5054671;28;20029;-56
2023/12/26 16:59:31;;;;;;;2.28;1.23;;;;;;;;;;5053587;28;20459;-56
2023/12/26 17:01:57;;;;;;;2.47;1.10;;;;;;;;;;5054475;28;20433;-57
2023/12/26 17:04:23;;;;;;;4.10;1.10;;;;;;;;;;5054074;28;20029;-57
2023/12/26 17:06:49;;;;;;;1.88;1.15;;;;;;;;;;5054399;28;20048;-57
2023/12/26 17:09:15;;;;;;;1.70;0.85;;;;;;;;;;5054716;28;20029;-57
2023/12/26 17:11:45;;;;;;;2.55;0.75;;;;;;;;;;5053898;28;20116;-57
2023/12/26 17:14:11;;;;;;;2.28;0.88;;;;;;;;;;5054047;28;20036;-57
2023/12/26 17:16:36;;;;;;;3.40;1.30;;;;;;;;;;5054003;28;20029;-57
2023/12/26 17:19:02;;;;;;;1.42;0.73;;;;;;;;;;5053741;28;20119;-57
2023/12/26 17:21:28;;;;;;;2.42;1.23;;;;;;;;;;5054192;28;20044;-55
2023/12/26 17:23:54;;;;;;;1.95;1.02;;;;;;;;;;5053688;28;20487;-56
2023/12/26 17:26:20;;;;;;;1.55;1.02;;;;;;;;;;5053713;28;20048;-57
2023/12/26 17:28:48;;;;;;;3.22;1.60;;;;;;;;;;5054408;28;20035;-55